sensor_id;sensor_type;location;lat;lon;timestamp;P1;durP1;ratioP1;P2;durP2;ratioP2
17390;SDS011;8813;54.444;18.446;2023-03-14T00:00:02;5.50;;;4.97;;
17390;SDS011;8813;54.444;18.446;2023-03-14T00:02:33;6.78;;;6.47;;
17390;SDS011;8813;54.444;18.446;2023-03-14T00:05:00;4.82;;;4.63;;
17390;SDS011;8813;54.444;18.446;2023-03-14T00:07:27;5.15;;;4.85;;
17390;SDS011;8813;54.444;18.446;2023-03-14T00:09:59;3.85;;;3.75;;
17390;SDS011;8813;54.444;18.446;2023-03-14T00:12:25;6.20;;;5.60;;
17390;SDS011;8813;54.444;18.446;2023-03-14T00:14:54;5.88;;;5.40;;
17390;SDS011;8813;54.444;18.446;2023-03-14T00:17:21;4.68;;;4.40;;
17390;SDS011;8813;54.444;18.446;2023-03-14T00:19:48;4.32;;;4.13;;
17390;SDS011;8813;54.444;18.446;2023-03-14T00:22:17;6.85;;;6.45;;
17390;SDS011;8813;54.444;18.446;2023-03-14T00:24:44;6.15;;;5.60;;
17390;SDS011;8813;54.444;18.446;2023-03-14T00:27:11;5.05;;;4.75;;
17390;SDS011;8813;54.444;18.446;2023-03-14T00:29:38;4.25;;;3.95;;
17390;SDS011;8813;54.444;18.446;2023-03-14T00:32:06;4.25;;;3.95;;
17390;SDS011;8813;54.444;18.446;2023-03-14T00:34:35;4.97;;;4.78;;
17390;SDS011;8813;54.444;18.446;2023-03-14T00:37:05;5.45;;;4.80;;
17390;SDS011;8813;54.444;18.446;2023-03-14T00:39:31;3.60;;;3.50;;
17390;SDS011;8813;54.444;18.446;2023-03-14T00:41:58;5.00;;;4.60;;
17390;SDS011;8813;54.444;18.446;2023-03-14T00:44:25;5.07;;;4.00;;
17390;SDS011;8813;54.444;18.446;2023-03-14T00:46:52;4.63;;;4.43;;
17390;SDS011;8813;54.444;18.446;2023-03-14T00:49:20;4.65;;;4.35;;
17390;SDS011;8813;54.444;18.446;2023-03-14T00:51:47;3.00;;;2.90;;
17390;SDS011;8813;54.444;18.446;2023-03-14T00:54:14;4.68;;;4.38;;
17390;SDS011;8813;54.444;18.446;2023-03-14T00:56:41;4.88;;;4.57;;
17390;SDS011;8813;54.444;18.446;2023-03-14T00:59:08;3.55;;;3.42;;
17390;SDS011;8813;54.444;18.446;2023-03-14T01:01:35;4.15;;;3.88;;
17390;SDS011;8813;54.444;18.446;2023-03-14T01:04:02;4.20;;;3.90;;
17390;SDS011;8813;54.444;18.446;2023-03-14T01:06:30;4.25;;;3.95;;
17390;SDS011;8813;54.444;18.446;2023-03-14T01:08:57;4.43;;;4.00;;
17390;SDS011;8813;54.444;18.446;2023-03-14T01:11:25;6.35;;;5.75;;
17390;SDS011;8813;54.444;18.446;2023-03-14T01:13:53;4.97;;;4.53;;
17390;SDS011;8813;54.444;18.446;2023-03-14T01:16:20;5.93;;;5.53;;
17390;SDS011;8813;54.444;18.446;2023-03-14T01:18:48;5.50;;;4.93;;
17390;SDS011;8813;54.444;18.446;2023-03-14T01:21:16;3.58;;;3.45;;
17390;SDS011;8813;54.444;18.446;2023-03-14T01:23:45;3.63;;;3.53;;
17390;SDS011;8813;54.444;18.446;2023-03-14T01:26:15;5.75;;;4.05;;
17390;SDS011;8813;54.444;18.446;2023-03-14T01:28:44;4.10;;;3.85;;
17390;SDS011;8813;54.444;18.446;2023-03-14T01:31:11;3.20;;;3.10;;
17390;SDS011;8813;54.444;18.446;2023-03-14T01:33:38;5.40;;;5.10;;
17390;SDS011;8813;54.444;18.446;2023-03-14T01:36:06;4.93;;;4.28;;
17390;SDS011;8813;54.444;18.446;2023-03-14T01:38:36;3.92;;;3.72;;
17390;SDS011;8813;54.444;18.446;2023-03-14T01:41:06;3.55;;;3.35;;
17390;SDS011;8813;54.444;18.446;2023-03-14T01:43:34;2.90;;;2.75;;
17390;SDS011;8813;54.444;18.446;2023-03-14T01:51:56;3.63;;;3.47;;
17390;SDS011;8813;54.444;18.446;2023-03-14T01:54:27;4.32;;;3.95;;
17390;SDS011;8813;54.444;18.446;2023-03-14T01:56:58;3.67;;;3.40;;
17390;SDS011;8813;54.444;18.446;2023-03-14T01:59:30;6.45;;;3.58;;
17390;SDS011;8813;54.444;18.446;2023-03-14T02:05:08;3.08;;;2.97;;
17390;SDS011;8813;54.444;18.446;2023-03-14T02:07:37;3.75;;;3.47;;
17390;SDS011;8813;54.444;18.446;2023-03-14T02:10:08;3.45;;;3.30;;
17390;SDS011;8813;54.444;18.446;2023-03-14T02:12:38;2.65;;;2.58;;
17390;SDS011;8813;54.444;18.446;2023-03-14T02:15:05;2.70;;;2.60;;
17390;SDS011;8813;54.444;18.446;2023-03-14T02:17:35;2.40;;;2.30;;
17390;SDS011;8813;54.444;18.446;2023-03-14T02:20:10;3.13;;;3.03;;
17390;SDS011;8813;54.444;18.446;2023-03-14T02:22:46;3.38;;;3.25;;
17390;SDS011;8813;54.444;18.446;2023-03-14T02:25:14;2.75;;;2.65;;
17390;SDS011;8813;54.444;18.446;2023-03-14T02:27:45;3.88;;;3.63;;
17390;SDS011;8813;54.444;18.446;2023-03-14T02:30:14;2.80;;;2.65;;
17390;SDS011;8813;54.444;18.446;2023-03-14T02:32:43;2.80;;;2.70;;
17390;SDS011;8813;54.444;18.446;2023-03-14T02:35:13;3.30;;;3.08;;
17390;SDS011;8813;54.444;18.446;2023-03-14T02:37:44;3.42;;;3.22;;
17390;SDS011;8813;54.444;18.446;2023-03-14T02:40:14;2.90;;;2.80;;
17390;SDS011;8813;54.444;18.446;2023-03-14T02:42:41;3.85;;;3.50;;
17390;SDS011;8813;54.444;18.446;2023-03-14T02:48:04;3.38;;;3.28;;
17390;SDS011;8813;54.444;18.446;2023-03-14T02:50:33;3.15;;;3.00;;
17390;SDS011;8813;54.444;18.446;2023-03-14T02:53:00;4.03;;;3.83;;
17390;SDS011;8813;54.444;18.446;2023-03-14T02:55:27;3.78;;;3.45;;
17390;SDS011;8813;54.444;18.446;2023-03-14T02:57:54;4.32;;;4.07;;
17390;SDS011;8813;54.444;18.446;2023-03-14T03:00:21;3.75;;;3.65;;
17390;SDS011;8813;54.444;18.446;2023-03-14T03:02:49;3.20;;;3.10;;
17390;SDS011;8813;54.444;18.446;2023-03-14T03:05:16;3.90;;;3.70;;
17390;SDS011;8813;54.444;18.446;2023-03-14T03:07:43;2.90;;;2.85;;
17390;SDS011;8813;54.444;18.446;2023-03-14T03:10:10;3.97;;;3.88;;
17390;SDS011;8813;54.444;18.446;2023-03-14T03:12:38;2.30;;;2.30;;
17390;SDS011;8813;54.444;18.446;2023-03-14T03:15:05;2.95;;;2.88;;
17390;SDS011;8813;54.444;18.446;2023-03-14T03:17:33;3.38;;;3.28;;
17390;SDS011;8813;54.444;18.446;2023-03-14T03:20:02;3.58;;;3.47;;
17390;SDS011;8813;54.444;18.446;2023-03-14T03:22:30;3.00;;;2.90;;
17390;SDS011;8813;54.444;18.446;2023-03-14T03:24:57;2.85;;;2.75;;
17390;SDS011;8813;54.444;18.446;2023-03-14T03:27:24;3.35;;;3.20;;
17390;SDS011;8813;54.444;18.446;2023-03-14T03:29:51;3.63;;;3.30;;
17390;SDS011;8813;54.444;18.446;2023-03-14T03:32:18;3.60;;;3.38;;
17390;SDS011;8813;54.444;18.446;2023-03-14T03:34:45;4.47;;;4.18;;
17390;SDS011;8813;54.444;18.446;2023-03-14T03:37:14;2.45;;;2.45;;
17390;SDS011;8813;54.444;18.446;2023-03-14T03:39:41;3.40;;;3.10;;
17390;SDS011;8813;54.444;18.446;2023-03-14T03:42:08;3.17;;;3.00;;
17390;SDS011;8813;54.444;18.446;2023-03-14T03:44:35;4.72;;;4.53;;
17390;SDS011;8813;54.444;18.446;2023-03-14T03:47:02;2.50;;;2.50;;
17390;SDS011;8813;54.444;18.446;2023-03-14T03:49:29;2.75;;;2.65;;
17390;SDS011;8813;54.444;18.446;2023-03-14T03:51:57;2.63;;;2.63;;
17390;SDS011;8813;54.444;18.446;2023-03-14T03:54:25;4.00;;;3.80;;
17390;SDS011;8813;54.444;18.446;2023-03-14T03:56:53;3.35;;;3.25;;
17390;SDS011;8813;54.444;18.446;2023-03-14T03:59:21;4.05;;;3.85;;
17390;SDS011;8813;54.444;18.446;2023-03-14T04:01:48;3.10;;;3.00;;
17390;SDS011;8813;54.444;18.446;2023-03-14T04:04:14;3.92;;;3.70;;
17390;SDS011;8813;54.444;18.446;2023-03-14T04:06:41;3.35;;;3.10;;
17390;SDS011;8813;54.444;18.446;2023-03-14T04:09:08;3.85;;;3.58;;
17390;SDS011;8813;54.444;18.446;2023-03-14T04:11:37;3.38;;;3.28;;
17390;SDS011;8813;54.444;18.446;2023-03-14T04:14:04;3.13;;;3.03;;
17390;SDS011;8813;54.444;18.446;2023-03-14T04:16:31;2.60;;;2.60;;
17390;SDS011;8813;54.444;18.446;2023-03-14T04:18:58;2.60;;;2.60;;
17390;SDS011;8813;54.444;18.446;2023-03-14T04:21:25;3.80;;;3.50;;
17390;SDS011;8813;54.444;18.446;2023-03-14T04:23:52;3.30;;;3.20;;
17390;SDS011;8813;54.444;18.446;2023-03-14T04:26:19;3.42;;;3.22;;
17390;SDS011;8813;54.444;18.446;2023-03-14T04:28:47;3.90;;;3.70;;
17390;SDS011;8813;54.444;18.446;2023-03-14T04:31:15;4.07;;;2.75;;
17390;SDS011;8813;54.444;18.446;2023-03-14T04:33:43;4.40;;;4.20;;
17390;SDS011;8813;54.444;18.446;2023-03-14T04:36:11;5.07;;;4.63;;
17390;SDS011;8813;54.444;18.446;2023-03-14T04:38:38;2.67;;;2.58;;
17390;SDS011;8813;54.444;18.446;2023-03-14T04:41:05;3.92;;;3.28;;
17390;SDS011;8813;54.444;18.446;2023-03-14T04:43:33;3.33;;;3.22;;
17390;SDS011;8813;54.444;18.446;2023-03-14T04:46:01;3.85;;;3.65;;
17390;SDS011;8813;54.444;18.446;2023-03-14T04:48:28;3.13;;;3.03;;
17390;SDS011;8813;54.444;18.446;2023-03-14T04:50:55;23.83;;;3.45;;
17390;SDS011;8813;54.444;18.446;2023-03-14T04:53:22;3.88;;;3.67;;
17390;SDS011;8813;54.444;18.446;2023-03-14T04:55:49;4.93;;;3.80;;
17390;SDS011;8813;54.444;18.446;2023-03-14T04:58:16;3.63;;;3.35;;
17390;SDS011;8813;54.444;18.446;2023-03-14T05:00:43;2.60;;;2.60;;
17390;SDS011;8813;54.444;18.446;2023-03-14T05:03:11;4.05;;;3.85;;
17390;SDS011;8813;54.444;18.446;2023-03-14T05:05:39;3.15;;;3.05;;
17390;SDS011;8813;54.444;18.446;2023-03-14T05:08:06;4.00;;;3.80;;
17390;SDS011;8813;54.444;18.446;2023-03-14T05:10:33;2.88;;;2.78;;
17390;SDS011;8813;54.444;18.446;2023-03-14T05:13:00;2.78;;;2.60;;
17390;SDS011;8813;54.444;18.446;2023-03-14T05:15:27;3.10;;;2.92;;
17390;SDS011;8813;54.444;18.446;2023-03-14T05:17:54;2.67;;;2.67;;
17390;SDS011;8813;54.444;18.446;2023-03-14T05:20:22;2.70;;;2.70;;
17390;SDS011;8813;54.444;18.446;2023-03-14T05:22:49;2.97;;;2.97;;
17390;SDS011;8813;54.444;18.446;2023-03-14T05:25:16;4.25;;;4.05;;
17390;SDS011;8813;54.444;18.446;2023-03-14T05:27:42;2.90;;;2.90;;
17390;SDS011;8813;54.444;18.446;2023-03-14T05:30:10;3.00;;;3.00;;
17390;SDS011;8813;54.444;18.446;2023-03-14T05:32:37;3.20;;;3.10;;
17390;SDS011;8813;54.444;18.446;2023-03-14T05:35:05;3.75;;;3.65;;
17390;SDS011;8813;54.444;18.446;2023-03-14T05:37:33;3.33;;;3.22;;
17390;SDS011;8813;54.444;18.446;2023-03-14T05:40:00;3.63;;;3.53;;
17390;SDS011;8813;54.444;18.446;2023-03-14T05:42:29;5.18;;;4.82;;
17390;SDS011;8813;54.444;18.446;2023-03-14T05:44:56;4.10;;;3.95;;
17390;SDS011;8813;54.444;18.446;2023-03-14T05:47:23;3.72;;;3.53;;
17390;SDS011;8813;54.444;18.446;2023-03-14T05:49:50;3.33;;;3.22;;
17390;SDS011;8813;54.444;18.446;2023-03-14T05:52:17;3.10;;;3.00;;
17390;SDS011;8813;54.444;18.446;2023-03-14T05:54:45;2.70;;;2.70;;
17390;SDS011;8813;54.444;18.446;2023-03-14T05:57:12;3.58;;;2.97;;
17390;SDS011;8813;54.444;18.446;2023-03-14T05:59:39;2.80;;;2.80;;
17390;SDS011;8813;54.444;18.446;2023-03-14T06:02:06;3.35;;;3.25;;
17390;SDS011;8813;54.444;18.446;2023-03-14T06:04:33;2.90;;;2.88;;
17390;SDS011;8813;54.444;18.446;2023-03-14T06:07:00;3.10;;;3.00;;
17390;SDS011;8813;54.444;18.446;2023-03-14T06:09:27;2.97;;;2.92;;
17390;SDS011;8813;54.444;18.446;2023-03-14T06:11:56;2.67;;;2.67;;
17390;SDS011;8813;54.444;18.446;2023-03-14T06:14:23;4.55;;;4.15;;
17390;SDS011;8813;54.444;18.446;2023-03-14T06:16:50;2.63;;;2.63;;
17390;SDS011;8813;54.444;18.446;2023-03-14T06:19:17;3.40;;;3.20;;
17390;SDS011;8813;54.444;18.446;2023-03-14T06:21:45;3.50;;;3.30;;
17390;SDS011;8813;54.444;18.446;2023-03-14T06:24:12;3.65;;;3.55;;
17390;SDS011;8813;54.444;18.446;2023-03-14T06:26:39;2.20;;;2.20;;
17390;SDS011;8813;54.444;18.446;2023-03-14T06:29:07;3.15;;;3.03;;
17390;SDS011;8813;54.444;18.446;2023-03-14T06:31:34;2.92;;;2.83;;
17390;SDS011;8813;54.444;18.446;2023-03-14T06:34:01;2.83;;;2.75;;
17390;SDS011;8813;54.444;18.446;2023-03-14T06:36:28;23.27;;;4.80;;
17390;SDS011;8813;54.444;18.446;2023-03-14T06:38:55;2.75;;;2.65;;
17390;SDS011;8813;54.444;18.446;2023-03-14T06:41:22;3.33;;;2.97;;
17390;SDS011;8813;54.444;18.446;2023-03-14T06:43:51;3.38;;;3.17;;
17390;SDS011;8813;54.444;18.446;2023-03-14T06:46:19;3.65;;;3.08;;
17390;SDS011;8813;54.444;18.446;2023-03-14T06:48:46;3.53;;;3.22;;
17390;SDS011;8813;54.444;18.446;2023-03-14T06:51:13;3.85;;;3.55;;
17390;SDS011;8813;54.444;18.446;2023-03-14T06:53:40;3.42;;;3.00;;
17390;SDS011;8813;54.444;18.446;2023-03-14T06:56:07;2.70;;;2.50;;
17390;SDS011;8813;54.444;18.446;2023-03-14T06:58:34;3.35;;;3.15;;
17390;SDS011;8813;54.444;18.446;2023-03-14T07:01:01;2.92;;;2.80;;
17390;SDS011;8813;54.444;18.446;2023-03-14T07:03:29;3.00;;;2.90;;
17390;SDS011;8813;54.444;18.446;2023-03-14T07:05:56;5.10;;;3.25;;
17390;SDS011;8813;54.444;18.446;2023-03-14T07:08:24;2.50;;;2.50;;
17390;SDS011;8813;54.444;18.446;2023-03-14T07:10:51;2.78;;;2.67;;
17390;SDS011;8813;54.444;18.446;2023-03-14T07:13:18;3.75;;;3.65;;
17390;SDS011;8813;54.444;18.446;2023-03-14T07:15:45;3.30;;;3.20;;
17390;SDS011;8813;54.444;18.446;2023-03-14T07:18:12;2.67;;;2.58;;
17390;SDS011;8813;54.444;18.446;2023-03-14T07:20:40;2.72;;;2.47;;
17390;SDS011;8813;54.444;18.446;2023-03-14T07:23:07;2.75;;;2.75;;
17390;SDS011;8813;54.444;18.446;2023-03-14T07:25:34;3.03;;;2.92;;
17390;SDS011;8813;54.444;18.446;2023-03-14T07:28:01;4.35;;;4.18;;
17390;SDS011;8813;54.444;18.446;2023-03-14T07:30:28;2.30;;;2.30;;
17390;SDS011;8813;54.444;18.446;2023-03-14T07:32:55;1.63;;;1.63;;
17390;SDS011;8813;54.444;18.446;2023-03-14T07:35:22;2.75;;;2.60;;
17390;SDS011;8813;54.444;18.446;2023-03-14T07:37:50;4.53;;;4.22;;
17390;SDS011;8813;54.444;18.446;2023-03-14T07:40:17;5.80;;;5.13;;
17390;SDS011;8813;54.444;18.446;2023-03-14T07:42:44;5.32;;;4.93;;
17390;SDS011;8813;54.444;18.446;2023-03-14T07:45:11;5.05;;;4.65;;
17390;SDS011;8813;54.444;18.446;2023-03-14T07:47:38;5.32;;;4.93;;
17390;SDS011;8813;54.444;18.446;2023-03-14T07:50:06;5.13;;;4.82;;
17390;SDS011;8813;54.444;18.446;2023-03-14T07:52:33;5.85;;;5.32;;
17390;SDS011;8813;54.444;18.446;2023-03-14T07:55:05;5.63;;;5.13;;
17390;SDS011;8813;54.444;18.446;2023-03-14T07:57:32;6.80;;;5.18;;
17390;SDS011;8813;54.444;18.446;2023-03-14T08:00:20;5.68;;;5.28;;
17390;SDS011;8813;54.444;18.446;2023-03-14T08:02:47;5.57;;;5.18;;
17390;SDS011;8813;54.444;18.446;2023-03-14T08:05:14;6.07;;;5.68;;
17390;SDS011;8813;54.444;18.446;2023-03-14T08:07:41;6.18;;;5.57;;
17390;SDS011;8813;54.444;18.446;2023-03-14T08:10:10;5.78;;;5.28;;
17390;SDS011;8813;54.444;18.446;2023-03-14T08:12:40;6.07;;;5.53;;
17390;SDS011;8813;54.444;18.446;2023-03-14T08:15:08;5.75;;;5.28;;
17390;SDS011;8813;54.444;18.446;2023-03-14T08:17:38;5.72;;;5.32;;
17390;SDS011;8813;54.444;18.446;2023-03-14T08:20:05;5.82;;;5.28;;
17390;SDS011;8813;54.444;18.446;2023-03-14T08:22:36;9.20;;;5.25;;
17390;SDS011;8813;54.444;18.446;2023-03-14T08:28:08;5.75;;;5.35;;
17390;SDS011;8813;54.444;18.446;2023-03-14T08:30:37;5.70;;;5.30;;
17390;SDS011;8813;54.444;18.446;2023-03-14T08:33:07;5.80;;;5.50;;
17390;SDS011;8813;54.444;18.446;2023-03-14T08:35:37;5.68;;;5.38;;
17390;SDS011;8813;54.444;18.446;2023-03-14T08:38:04;6.05;;;5.68;;
17390;SDS011;8813;54.444;18.446;2023-03-14T08:40:32;5.32;;;5.00;;
17390;SDS011;8813;54.444;18.446;2023-03-14T08:42:59;5.53;;;5.13;;
17390;SDS011;8813;54.444;18.446;2023-03-14T08:45:26;6.80;;;5.80;;
17390;SDS011;8813;54.444;18.446;2023-03-14T08:47:53;5.90;;;5.35;;
17390;SDS011;8813;54.444;18.446;2023-03-14T08:50:20;5.60;;;5.20;;
17390;SDS011;8813;54.444;18.446;2023-03-14T08:52:48;6.25;;;5.75;;
17390;SDS011;8813;54.444;18.446;2023-03-14T08:55:15;5.80;;;5.35;;
17390;SDS011;8813;54.444;18.446;2023-03-14T08:57:44;5.68;;;5.22;;
17390;SDS011;8813;54.444;18.446;2023-03-14T09:00:11;5.35;;;4.97;;
17390;SDS011;8813;54.444;18.446;2023-03-14T09:02:40;6.35;;;5.85;;
17390;SDS011;8813;54.444;18.446;2023-03-14T09:05:08;6.22;;;5.80;;
17390;SDS011;8813;54.444;18.446;2023-03-14T09:07:35;5.80;;;5.50;;
17390;SDS011;8813;54.444;18.446;2023-03-14T09:10:02;6.80;;;6.00;;
17390;SDS011;8813;54.444;18.446;2023-03-14T09:12:30;6.13;;;5.78;;
17390;SDS011;8813;54.444;18.446;2023-03-14T09:14:58;5.60;;;5.30;;
17390;SDS011;8813;54.444;18.446;2023-03-14T09:17:25;6.32;;;5.75;;
17390;SDS011;8813;54.444;18.446;2023-03-14T09:19:52;6.22;;;5.72;;
17390;SDS011;8813;54.444;18.446;2023-03-14T09:22:19;5.88;;;5.47;;
17390;SDS011;8813;54.444;18.446;2023-03-14T09:24:46;6.43;;;5.90;;
17390;SDS011;8813;54.444;18.446;2023-03-14T09:27:13;6.68;;;6.20;;
17390;SDS011;8813;54.444;18.446;2023-03-14T09:29:40;6.85;;;6.30;;
17390;SDS011;8813;54.444;18.446;2023-03-14T09:32:09;8.25;;;7.55;;
17390;SDS011;8813;54.444;18.446;2023-03-14T09:34:36;6.97;;;6.38;;
17390;SDS011;8813;54.444;18.446;2023-03-14T09:37:03;6.30;;;5.80;;
17390;SDS011;8813;54.444;18.446;2023-03-14T09:39:29;6.22;;;5.63;;
17390;SDS011;8813;54.444;18.446;2023-03-14T09:41:56;6.82;;;6.43;;
17390;SDS011;8813;54.444;18.446;2023-03-14T09:44:25;7.13;;;6.47;;
17390;SDS011;8813;54.444;18.446;2023-03-14T09:46:55;6.40;;;5.93;;
17390;SDS011;8813;54.444;18.446;2023-03-14T09:49:27;5.82;;;5.45;;
17390;SDS011;8813;54.444;18.446;2023-03-14T09:51:55;7.05;;;6.50;;
17390;SDS011;8813;54.444;18.446;2023-03-14T09:54:28;6.70;;;6.00;;
17390;SDS011;8813;54.444;18.446;2023-03-14T09:56:57;6.28;;;5.88;;
17390;SDS011;8813;54.444;18.446;2023-03-14T09:59:25;6.57;;;6.13;;
17390;SDS011;8813;54.444;18.446;2023-03-14T10:01:52;6.05;;;5.65;;
17390;SDS011;8813;54.444;18.446;2023-03-14T10:04:31;6.47;;;5.97;;
17390;SDS011;8813;54.444;18.446;2023-03-14T10:06:59;6.20;;;5.82;;
17390;SDS011;8813;54.444;18.446;2023-03-14T10:09:26;6.35;;;5.95;;
17390;SDS011;8813;54.444;18.446;2023-03-14T10:11:54;6.55;;;5.97;;
17390;SDS011;8813;54.444;18.446;2023-03-14T10:14:29;6.85;;;6.22;;
17390;SDS011;8813;54.444;18.446;2023-03-14T10:17:04;6.35;;;5.85;;
17390;SDS011;8813;54.444;18.446;2023-03-14T10:19:34;7.07;;;5.70;;
17390;SDS011;8813;54.444;18.446;2023-03-14T10:22:01;6.05;;;5.63;;
17390;SDS011;8813;54.444;18.446;2023-03-14T10:24:30;7.30;;;6.60;;
17390;SDS011;8813;54.444;18.446;2023-03-14T10:26:59;6.50;;;5.90;;
17390;SDS011;8813;54.444;18.446;2023-03-14T10:29:28;7.20;;;6.68;;
17390;SDS011;8813;54.444;18.446;2023-03-14T10:31:57;6.32;;;5.93;;
17390;SDS011;8813;54.444;18.446;2023-03-14T10:34:28;5.72;;;5.22;;
17390;SDS011;8813;54.444;18.446;2023-03-14T10:36:58;5.55;;;5.15;;
17390;SDS011;8813;54.444;18.446;2023-03-14T10:39:34;5.65;;;5.25;;
17390;SDS011;8813;54.444;18.446;2023-03-14T10:42:10;6.07;;;5.68;;
17390;SDS011;8813;54.444;18.446;2023-03-14T10:44:40;5.93;;;5.32;;
17390;SDS011;8813;54.444;18.446;2023-03-14T10:47:12;6.10;;;5.53;;
17390;SDS011;8813;54.444;18.446;2023-03-14T10:49:43;5.90;;;5.40;;
17390;SDS011;8813;54.444;18.446;2023-03-14T10:52:14;5.85;;;5.45;;
17390;SDS011;8813;54.444;18.446;2023-03-14T10:54:48;6.22;;;5.72;;
17390;SDS011;8813;54.444;18.446;2023-03-14T10:57:18;6.15;;;5.70;;
17390;SDS011;8813;54.444;18.446;2023-03-14T10:59:45;5.95;;;5.50;;
17390;SDS011;8813;54.444;18.446;2023-03-14T11:02:18;6.07;;;5.57;;
17390;SDS011;8813;54.444;18.446;2023-03-14T11:04:56;6.00;;;5.40;;
17390;SDS011;8813;54.444;18.446;2023-03-14T11:07:32;5.70;;;5.22;;
17390;SDS011;8813;54.444;18.446;2023-03-14T11:10:02;5.90;;;5.30;;
17390;SDS011;8813;54.444;18.446;2023-03-14T11:12:39;6.20;;;5.75;;
17390;SDS011;8813;54.444;18.446;2023-03-14T11:15:12;5.40;;;4.90;;
17390;SDS011;8813;54.444;18.446;2023-03-14T11:17:46;6.10;;;5.43;;
17390;SDS011;8813;54.444;18.446;2023-03-14T11:23:08;7.30;;;5.90;;
17390;SDS011;8813;54.444;18.446;2023-03-14T11:25:41;5.78;;;4.93;;
17390;SDS011;8813;54.444;18.446;2023-03-14T11:28:14;5.40;;;4.97;;
17390;SDS011;8813;54.444;18.446;2023-03-14T11:30:47;5.45;;;4.90;;
17390;SDS011;8813;54.444;18.446;2023-03-14T11:33:18;5.30;;;5.00;;
17390;SDS011;8813;54.444;18.446;2023-03-14T11:35:49;5.10;;;4.60;;
17390;SDS011;8813;54.444;18.446;2023-03-14T11:38:26;4.80;;;4.50;;
17390;SDS011;8813;54.444;18.446;2023-03-14T11:40:57;5.15;;;4.72;;
17390;SDS011;8813;54.444;18.446;2023-03-14T11:43:26;5.93;;;5.43;;
17390;SDS011;8813;54.444;18.446;2023-03-14T11:45:57;4.63;;;4.22;;
17390;SDS011;8813;54.444;18.446;2023-03-14T11:48:32;4.60;;;4.20;;
17390;SDS011;8813;54.444;18.446;2023-03-14T11:51:07;4.45;;;4.15;;
17390;SDS011;8813;54.444;18.446;2023-03-14T11:53:45;5.15;;;4.70;;
17390;SDS011;8813;54.444;18.446;2023-03-14T11:56:18;4.35;;;4.05;;
17390;SDS011;8813;54.444;18.446;2023-03-14T11:58:51;6.53;;;4.78;;
17390;SDS011;8813;54.444;18.446;2023-03-14T12:01:22;4.85;;;4.25;;
17390;SDS011;8813;54.444;18.446;2023-03-14T12:03:55;5.50;;;4.50;;
17390;SDS011;8813;54.444;18.446;2023-03-14T12:06:24;4.75;;;4.40;;
17390;SDS011;8813;54.444;18.446;2023-03-14T12:08:55;4.05;;;3.72;;
17390;SDS011;8813;54.444;18.446;2023-03-14T12:11:32;4.70;;;4.30;;
17390;SDS011;8813;54.444;18.446;2023-03-14T12:14:02;5.22;;;4.70;;
17390;SDS011;8813;54.444;18.446;2023-03-14T12:16:33;7.03;;;4.40;;
17390;SDS011;8813;54.444;18.446;2023-03-14T12:24:56;4.63;;;1.35;;
17390;SDS011;8813;54.444;18.446;2023-03-14T12:27:42;2.05;;;1.73;;
17390;SDS011;8813;54.444;18.446;2023-03-14T12:30:16;4.50;;;4.10;;
17390;SDS011;8813;54.444;18.446;2023-03-14T12:35:57;4.93;;;4.03;;
17390;SDS011;8813;54.444;18.446;2023-03-14T12:38:27;4.43;;;4.00;;
17390;SDS011;8813;54.444;18.446;2023-03-14T12:41:00;3.55;;;3.35;;
17390;SDS011;8813;54.444;18.446;2023-03-14T12:43:32;3.80;;;3.50;;
17390;SDS011;8813;54.444;18.446;2023-03-14T12:46:07;3.50;;;3.30;;
17390;SDS011;8813;54.444;18.446;2023-03-14T12:48:42;3.72;;;3.35;;
17390;SDS011;8813;54.444;18.446;2023-03-14T12:51:12;4.10;;;3.78;;
17390;SDS011;8813;54.444;18.446;2023-03-14T12:53:51;5.57;;;3.40;;
17390;SDS011;8813;54.444;18.446;2023-03-14T12:56:42;7.20;;;3.20;;
17390;SDS011;8813;54.444;18.446;2023-03-14T12:59:28;3.28;;;2.95;;
17390;SDS011;8813;54.444;18.446;2023-03-14T13:01:59;4.18;;;2.22;;
17390;SDS011;8813;54.444;18.446;2023-03-14T13:04:29;2.90;;;2.28;;
17390;SDS011;8813;54.444;18.446;2023-03-14T13:06:59;2.15;;;2.05;;
17390;SDS011;8813;54.444;18.446;2023-03-14T13:12:37;2.42;;;2.22;;
17390;SDS011;8813;54.444;18.446;2023-03-14T13:15:13;2.38;;;2.17;;
17390;SDS011;8813;54.444;18.446;2023-03-14T13:17:45;1.80;;;1.70;;
17390;SDS011;8813;54.444;18.446;2023-03-14T13:20:16;1.45;;;1.45;;
17390;SDS011;8813;54.444;18.446;2023-03-14T13:22:47;1.50;;;1.50;;
17390;SDS011;8813;54.444;18.446;2023-03-14T13:25:17;2.10;;;1.98;;
17390;SDS011;8813;54.444;18.446;2023-03-14T13:27:48;2.22;;;2.13;;
17390;SDS011;8813;54.444;18.446;2023-03-14T13:30:20;1.65;;;1.58;;
17390;SDS011;8813;54.444;18.446;2023-03-14T13:32:49;1.50;;;1.50;;
17390;SDS011;8813;54.444;18.446;2023-03-14T13:35:18;6.13;;;2.67;;
17390;SDS011;8813;54.444;18.446;2023-03-14T13:37:46;2.00;;;1.90;;
17390;SDS011;8813;54.444;18.446;2023-03-14T13:40:20;2.13;;;1.95;;
17390;SDS011;8813;54.444;18.446;2023-03-14T13:43:04;2.15;;;2.05;;
17390;SDS011;8813;54.444;18.446;2023-03-14T13:45:43;3.70;;;2.60;;
17390;SDS011;8813;54.444;18.446;2023-03-14T13:48:20;2.25;;;2.05;;
17390;SDS011;8813;54.444;18.446;2023-03-14T13:50:52;2.33;;;2.22;;
17390;SDS011;8813;54.444;18.446;2023-03-14T13:53:21;3.78;;;3.00;;
17390;SDS011;8813;54.444;18.446;2023-03-14T13:55:48;3.28;;;2.92;;
17390;SDS011;8813;54.444;18.446;2023-03-14T13:58:29;4.47;;;3.28;;
17390;SDS011;8813;54.444;18.446;2023-03-14T14:01:04;2.83;;;2.63;;
17390;SDS011;8813;54.444;18.446;2023-03-14T14:03:33;1.20;;;1.20;;
17390;SDS011;8813;54.444;18.446;2023-03-14T14:06:02;2.70;;;1.75;;
17390;SDS011;8813;54.444;18.446;2023-03-14T14:08:29;2.58;;;2.22;;
17390;SDS011;8813;54.444;18.446;2023-03-14T14:10:59;3.22;;;2.28;;
17390;SDS011;8813;54.444;18.446;2023-03-14T14:13:29;1.45;;;1.45;;
17390;SDS011;8813;54.444;18.446;2023-03-14T14:15:59;1.60;;;1.50;;
17390;SDS011;8813;54.444;18.446;2023-03-14T14:18:29;1.83;;;1.83;;
17390;SDS011;8813;54.444;18.446;2023-03-14T14:20:57;3.30;;;2.50;;
17390;SDS011;8813;54.444;18.446;2023-03-14T14:23:25;1.70;;;1.60;;
17390;SDS011;8813;54.444;18.446;2023-03-14T14:25:54;1.70;;;1.60;;
17390;SDS011;8813;54.444;18.446;2023-03-14T14:28:24;2.35;;;2.25;;
17390;SDS011;8813;54.444;18.446;2023-03-14T14:31:02;3.55;;;1.42;;
17390;SDS011;8813;54.444;18.446;2023-03-14T14:33:37;1.70;;;1.60;;
17390;SDS011;8813;54.444;18.446;2023-03-14T14:36:12;1.45;;;1.45;;
17390;SDS011;8813;54.444;18.446;2023-03-14T14:38:41;1.67;;;1.58;;
17390;SDS011;8813;54.444;18.446;2023-03-14T14:41:10;2.20;;;2.00;;
17390;SDS011;8813;54.444;18.446;2023-03-14T14:43:38;1.63;;;1.52;;
17390;SDS011;8813;54.444;18.446;2023-03-14T14:46:08;1.52;;;1.52;;
17390;SDS011;8813;54.444;18.446;2023-03-14T14:48:37;1.90;;;1.90;;
17390;SDS011;8813;54.444;18.446;2023-03-14T14:51:05;1.90;;;1.80;;
17390;SDS011;8813;54.444;18.446;2023-03-14T14:53:35;1.27;;;1.27;;
17390;SDS011;8813;54.444;18.446;2023-03-14T14:56:04;1.90;;;1.52;;
17390;SDS011;8813;54.444;18.446;2023-03-14T14:58:34;4.32;;;2.22;;
17390;SDS011;8813;54.444;18.446;2023-03-14T15:01:04;1.85;;;1.45;;
17390;SDS011;8813;54.444;18.446;2023-03-14T15:03:35;3.33;;;2.40;;
17390;SDS011;8813;54.444;18.446;2023-03-14T15:06:03;1.60;;;1.60;;
17390;SDS011;8813;54.444;18.446;2023-03-14T15:08:30;2.10;;;2.00;;
17390;SDS011;8813;54.444;18.446;2023-03-14T15:10:57;2.53;;;2.35;;
17390;SDS011;8813;54.444;18.446;2023-03-14T15:13:24;3.95;;;3.38;;
17390;SDS011;8813;54.444;18.446;2023-03-14T15:15:51;4.75;;;4.55;;
17390;SDS011;8813;54.444;18.446;2023-03-14T15:18:21;7.53;;;6.90;;
17390;SDS011;8813;54.444;18.446;2023-03-14T15:20:50;8.48;;;7.72;;
17390;SDS011;8813;54.444;18.446;2023-03-14T15:23:17;9.35;;;8.75;;
17390;SDS011;8813;54.444;18.446;2023-03-14T15:25:45;5.15;;;4.85;;
17390;SDS011;8813;54.444;18.446;2023-03-14T15:28:13;7.22;;;6.72;;